sensor_id;sensor_type;location;lat;lon;timestamp;P1;durP1;ratioP1;P2;durP2;ratioP2
8694;SDS011;65580;49.446;6.854;2024-02-23T00:02:56;3.85;;;0.60;;
8694;SDS011;65580;49.446;6.854;2024-02-23T00:07:01;1.75;;;0.47;;
8694;SDS011;65580;49.446;6.854;2024-02-23T00:11:05;3.30;;;0.22;;
8694;SDS011;65580;49.446;6.854;2024-02-23T00:15:16;8.30;;;0.68;;
8694;SDS011;65580;49.446;6.854;2024-02-23T00:19:26;2.10;;;0.57;;
8694;SDS011;65580;49.446;6.854;2024-02-23T00:23:30;3.30;;;0.50;;
8694;SDS011;65580;49.446;6.854;2024-02-23T00:27:34;4.30;;;0.57;;
8694;SDS011;65580;49.446;6.854;2024-02-23T00:31:37;4.00;;;0.38;;
8694;SDS011;65580;49.446;6.854;2024-02-23T00:35:42;3.72;;;0.60;;
8694;SDS011;65580;49.446;6.854;2024-02-23T00:39:48;6.72;;;0.60;;
8694;SDS011;65580;49.446;6.854;2024-02-23T00:43:51;2.88;;;0.50;;
8694;SDS011;65580;49.446;6.854;2024-02-23T00:47:55;5.15;;;0.47;;
8694;SDS011;65580;49.446;6.854;2024-02-23T00:52:03;3.38;;;0.57;;
8694;SDS011;65580;49.446;6.854;2024-02-23T00:56:08;2.83;;;0.55;;
8694;SDS011;65580;49.446;6.854;2024-02-23T01:04:43;3.05;;;0.80;;
8694;SDS011;65580;49.446;6.854;2024-02-23T01:08:51;2.25;;;0.50;;
8694;SDS011;65580;49.446;6.854;2024-02-23T01:12:56;3.90;;;0.70;;
8694;SDS011;65580;49.446;6.854;2024-02-23T01:16:59;2.10;;;0.40;;
8694;SDS011;65580;49.446;6.854;2024-02-23T01:21:04;3.35;;;0.43;;
8694;SDS011;65580;49.446;6.854;2024-02-23T01:25:10;3.10;;;0.47;;
8694;SDS011;65580;49.446;6.854;2024-02-23T01:29:30;2.45;;;0.52;;
8694;SDS011;65580;49.446;6.854;2024-02-23T01:33:34;4.78;;;0.85;;
8694;SDS011;65580;49.446;6.854;2024-02-23T01:37:38;2.40;;;0.40;;
8694;SDS011;65580;49.446;6.854;2024-02-23T01:41:41;2.33;;;0.65;;
8694;SDS011;65580;49.446;6.854;2024-02-23T01:45:46;5.05;;;0.60;;
8694;SDS011;65580;49.446;6.854;2024-02-23T01:49:50;2.15;;;0.55;;
8694;SDS011;65580;49.446;6.854;2024-02-23T01:53:56;3.25;;;0.47;;
8694;SDS011;65580;49.446;6.854;2024-02-23T01:57:59;3.20;;;0.47;;
8694;SDS011;65580;49.446;6.854;2024-02-23T02:02:08;3.25;;;0.60;;
8694;SDS011;65580;49.446;6.854;2024-02-23T02:06:12;4.50;;;0.75;;
8694;SDS011;65580;49.446;6.854;2024-02-23T02:10:16;2.33;;;0.80;;
8694;SDS011;65580;49.446;6.854;2024-02-23T02:14:27;1.50;;;0.52;;
8694;SDS011;65580;49.446;6.854;2024-02-23T02:18:38;4.00;;;0.45;;
8694;SDS011;65580;49.446;6.854;2024-02-23T02:22:41;0.82;;;0.35;;
8694;SDS011;65580;49.446;6.854;2024-02-23T02:26:44;2.45;;;0.65;;
8694;SDS011;65580;49.446;6.854;2024-02-23T02:30:48;5.45;;;0.75;;
8694;SDS011;65580;49.446;6.854;2024-02-23T02:34:53;1.98;;;0.50;;
8694;SDS011;65580;49.446;6.854;2024-02-23T02:38:56;2.55;;;0.70;;
8694;SDS011;65580;49.446;6.854;2024-02-23T02:42:58;4.15;;;0.60;;
8694;SDS011;65580;49.446;6.854;2024-02-23T02:47:02;6.00;;;0.65;;
8694;SDS011;65580;49.446;6.854;2024-02-23T02:51:08;4.40;;;0.70;;
8694;SDS011;65580;49.446;6.854;2024-02-23T02:55:11;3.88;;;0.70;;
8694;SDS011;65580;49.446;6.854;2024-02-23T02:59:26;3.03;;;0.68;;
8694;SDS011;65580;49.446;6.854;2024-02-23T03:03:33;3.05;;;0.60;;
8694;SDS011;65580;49.446;6.854;2024-02-23T03:07:48;2.25;;;0.90;;
8694;SDS011;65580;49.446;6.854;2024-02-23T03:11:54;4.90;;;0.60;;
8694;SDS011;65580;49.446;6.854;2024-02-23T03:15:58;3.83;;;0.90;;
8694;SDS011;65580;49.446;6.854;2024-02-23T03:20:02;4.68;;;0.70;;
8694;SDS011;65580;49.446;6.854;2024-02-23T03:24:19;4.05;;;0.95;;
8694;SDS011;65580;49.446;6.854;2024-02-23T03:28:22;3.53;;;0.57;;
8694;SDS011;65580;49.446;6.854;2024-02-23T03:32:38;2.17;;;0.43;;
8694;SDS011;65580;49.446;6.854;2024-02-23T03:36:44;2.53;;;0.73;;
8694;SDS011;65580;49.446;6.854;2024-02-23T03:40:49;3.60;;;0.80;;
8694;SDS011;65580;49.446;6.854;2024-02-23T03:49:41;4.75;;;0.80;;
8694;SDS011;65580;49.446;6.854;2024-02-23T03:53:51;2.08;;;0.63;;
8694;SDS011;65580;49.446;6.854;2024-02-23T03:58:02;3.80;;;0.85;;
8694;SDS011;65580;49.446;6.854;2024-02-23T04:02:05;3.25;;;0.98;;
8694;SDS011;65580;49.446;6.854;2024-02-23T04:06:13;2.63;;;1.00;;
8694;SDS011;65580;49.446;6.854;2024-02-23T04:10:15;8.65;;;1.02;;
8694;SDS011;65580;49.446;6.854;2024-02-23T04:14:22;7.07;;;0.80;;
8694;SDS011;65580;49.446;6.854;2024-02-23T04:22:28;6.57;;;1.00;;
8694;SDS011;65580;49.446;6.854;2024-02-23T04:26:31;4.32;;;0.75;;
8694;SDS011;65580;49.446;6.854;2024-02-23T04:30:35;6.68;;;1.48;;
8694;SDS011;65580;49.446;6.854;2024-02-23T04:38:40;4.85;;;1.45;;
8694;SDS011;65580;49.446;6.854;2024-02-23T04:42:43;3.83;;;1.27;;
8694;SDS011;65580;49.446;6.854;2024-02-23T04:46:48;7.72;;;1.27;;
8694;SDS011;65580;49.446;6.854;2024-02-23T04:50:51;5.18;;;1.40;;
8694;SDS011;65580;49.446;6.854;2024-02-23T04:54:54;2.05;;;1.02;;
8694;SDS011;65580;49.446;6.854;2024-02-23T04:58:56;3.10;;;0.95;;
8694;SDS011;65580;49.446;6.854;2024-02-23T05:03:01;9.57;;;1.20;;
8694;SDS011;65580;49.446;6.854;2024-02-23T05:11:38;8.77;;;1.25;;
8694;SDS011;65580;49.446;6.854;2024-02-23T05:15:46;4.18;;;1.13;;
8694;SDS011;65580;49.446;6.854;2024-02-23T05:33:48;4.68;;;0.98;;
8694;SDS011;65580;49.446;6.854;2024-02-23T05:37:53;11.63;;;1.75;;
8694;SDS011;65580;49.446;6.854;2024-02-23T05:41:56;7.03;;;1.13;;
8694;SDS011;65580;49.446;6.854;2024-02-23T05:46:01;5.35;;;1.02;;
8694;SDS011;65580;49.446;6.854;2024-02-23T05:50:04;11.13;;;1.48;;
8694;SDS011;65580;49.446;6.854;2024-02-23T05:54:09;7.88;;;1.48;;
8694;SDS011;65580;49.446;6.854;2024-02-23T05:58:12;8.23;;;1.10;;
8694;SDS011;65580;49.446;6.854;2024-02-23T06:02:18;10.05;;;2.00;;
8694;SDS011;65580;49.446;6.854;2024-02-23T06:06:25;5.63;;;1.35;;
8694;SDS011;65580;49.446;6.854;2024-02-23T06:10:30;3.33;;;1.35;;
8694;SDS011;65580;49.446;6.854;2024-02-23T06:14:37;5.68;;;1.20;;
8694;SDS011;65580;49.446;6.854;2024-02-23T06:18:43;6.65;;;1.92;;
8694;SDS011;65580;49.446;6.854;2024-02-23T06:22:49;2.58;;;1.40;;
8694;SDS011;65580;49.446;6.854;2024-02-23T06:27:15;7.75;;;1.77;;
8694;SDS011;65580;49.446;6.854;2024-02-23T06:31:19;8.30;;;1.80;;
8694;SDS011;65580;49.446;6.854;2024-02-23T06:35:23;8.70;;;1.52;;
8694;SDS011;65580;49.446;6.854;2024-02-23T06:39:26;6.78;;;1.60;;
8694;SDS011;65580;49.446;6.854;2024-02-23T06:43:31;6.13;;;1.63;;
8694;SDS011;65580;49.446;6.854;2024-02-23T06:51:37;8.05;;;1.20;;
8694;SDS011;65580;49.446;6.854;2024-02-23T06:55:47;5.38;;;1.55;;
8694;SDS011;65580;49.446;6.854;2024-02-23T07:04:01;7.53;;;1.38;;
8694;SDS011;65580;49.446;6.854;2024-02-23T07:08:04;10.80;;;1.85;;
8694;SDS011;65580;49.446;6.854;2024-02-23T07:12:08;10.90;;;1.63;;
8694;SDS011;65580;49.446;6.854;2024-02-23T07:16:18;11.00;;;1.73;;
8694;SDS011;65580;49.446;6.854;2024-02-23T07:20:22;8.82;;;1.80;;
8694;SDS011;65580;49.446;6.854;2024-02-23T07:28:41;8.07;;;1.42;;
8694;SDS011;65580;49.446;6.854;2024-02-23T07:32:47;6.60;;;1.30;;
8694;SDS011;65580;49.446;6.854;2024-02-23T07:36:54;12.32;;;1.40;;
8694;SDS011;65580;49.446;6.854;2024-02-23T07:40:57;12.45;;;1.70;;
8694;SDS011;65580;49.446;6.854;2024-02-23T07:45:00;10.98;;;1.77;;
8694;SDS011;65580;49.446;6.854;2024-02-23T07:49:05;10.68;;;1.40;;
8694;SDS011;65580;49.446;6.854;2024-02-23T07:53:08;8.23;;;1.30;;
8694;SDS011;65580;49.446;6.854;2024-02-23T07:57:11;7.60;;;1.52;;
8694;SDS011;65580;49.446;6.854;2024-02-23T08:01:18;11.13;;;1.50;;
8694;SDS011;65580;49.446;6.854;2024-02-23T08:05:30;12.05;;;1.77;;
8694;SDS011;65580;49.446;6.854;2024-02-23T08:09:36;11.52;;;1.40;;
8694;SDS011;65580;49.446;6.854;2024-02-23T08:13:58;10.52;;;1.35;;
8694;SDS011;65580;49.446;6.854;2024-02-23T08:18:03;9.27;;;1.73;;
8694;SDS011;65580;49.446;6.854;2024-02-23T08:22:14;6.88;;;1.40;;
8694;SDS011;65580;49.446;6.854;2024-02-23T08:26:17;12.30;;;1.88;;
8694;SDS011;65580;49.446;6.854;2024-02-23T08:30:19;5.10;;;1.13;;
8694;SDS011;65580;49.446;6.854;2024-02-23T08:34:22;10.63;;;1.70;;
8694;SDS011;65580;49.446;6.854;2024-02-23T08:38:27;11.98;;;1.50;;
8694;SDS011;65580;49.446;6.854;2024-02-23T08:42:47;5.68;;;1.30;;
8694;SDS011;65580;49.446;6.854;2024-02-23T08:50:59;10.35;;;1.83;;
8694;SDS011;65580;49.446;6.854;2024-02-23T08:55:04;7.72;;;1.42;;
8694;SDS011;65580;49.446;6.854;2024-02-23T08:59:08;8.48;;;1.40;;
8694;SDS011;65580;49.446;6.854;2024-02-23T09:03:11;13.77;;;1.52;;
8694;SDS011;65580;49.446;6.854;2024-02-23T09:07:19;8.63;;;1.98;;
8694;SDS011;65580;49.446;6.854;2024-02-23T09:11:24;10.35;;;1.73;;
8694;SDS011;65580;49.446;6.854;2024-02-23T09:15:28;11.13;;;1.85;;
8694;SDS011;65580;49.446;6.854;2024-02-23T09:19:35;5.20;;;1.48;;
8694;SDS011;65580;49.446;6.854;2024-02-23T09:23:40;8.43;;;1.83;;
8694;SDS011;65580;49.446;6.854;2024-02-23T09:27:45;12.98;;;1.42;;
8694;SDS011;65580;49.446;6.854;2024-02-23T09:31:58;9.50;;;1.73;;
8694;SDS011;65580;49.446;6.854;2024-02-23T09:40:08;8.80;;;1.45;;
8694;SDS011;65580;49.446;6.854;2024-02-23T09:44:14;9.45;;;1.30;;
8694;SDS011;65580;49.446;6.854;2024-02-23T09:48:18;6.97;;;1.23;;
8694;SDS011;65580;49.446;6.854;2024-02-23T09:52:22;7.13;;;1.30;;
8694;SDS011;65580;49.446;6.854;2024-02-23T09:56:27;10.45;;;1.48;;
8694;SDS011;65580;49.446;6.854;2024-02-23T10:00:41;7.20;;;1.38;;
8694;SDS011;65580;49.446;6.854;2024-02-23T10:04:45;7.78;;;1.20;;
8694;SDS011;65580;49.446;6.854;2024-02-23T10:08:50;8.73;;;1.30;;
8694;SDS011;65580;49.446;6.854;2024-02-23T10:17:24;6.97;;;1.30;;
8694;SDS011;65580;49.446;6.854;2024-02-23T10:21:27;7.97;;;1.20;;
8694;SDS011;65580;49.446;6.854;2024-02-23T10:25:33;9.52;;;2.00;;
8694;SDS011;65580;49.446;6.854;2024-02-23T10:34:09;6.88;;;1.42;;
8694;SDS011;65580;49.446;6.854;2024-02-23T10:38:13;5.97;;;1.40;;
8694;SDS011;65580;49.446;6.854;2024-02-23T10:46:53;9.07;;;1.13;;
8694;SDS011;65580;49.446;6.854;2024-02-23T10:51:09;6.57;;;1.23;;
8694;SDS011;65580;49.446;6.854;2024-02-23T10:55:27;4.20;;;1.05;;
8694;SDS011;65580;49.446;6.854;2024-02-23T10:59:37;7.55;;;1.17;;
8694;SDS011;65580;49.446;6.854;2024-02-23T11:03:42;6.10;;;1.83;;
8694;SDS011;65580;49.446;6.854;2024-02-23T11:08:02;5.60;;;1.33;;
8694;SDS011;65580;49.446;6.854;2024-02-23T11:12:21;5.65;;;1.42;;
8694;SDS011;65580;49.446;6.854;2024-02-23T11:16:27;5.05;;;1.30;;
8694;SDS011;65580;49.446;6.854;2024-02-23T11:20:34;6.90;;;1.45;;
8694;SDS011;65580;49.446;6.854;2024-02-23T11:24:48;8.20;;;1.10;;
8694;SDS011;65580;49.446;6.854;2024-02-23T11:28:56;7.40;;;1.15;;
8694;SDS011;65580;49.446;6.854;2024-02-23T11:32:59;7.93;;;1.10;;
8694;SDS011;65580;49.446;6.854;2024-02-23T11:37:15;3.88;;;1.02;;
8694;SDS011;65580;49.446;6.854;2024-02-23T11:41:22;4.20;;;1.10;;
8694;SDS011;65580;49.446;6.854;2024-02-23T11:45:26;3.10;;;0.57;;
8694;SDS011;65580;49.446;6.854;2024-02-23T11:49:40;7.13;;;1.00;;
8694;SDS011;65580;49.446;6.854;2024-02-23T11:53:43;5.75;;;0.98;;
8694;SDS011;65580;49.446;6.854;2024-02-23T11:57:48;6.18;;;0.90;;
8694;SDS011;65580;49.446;6.854;2024-02-23T12:02:14;6.72;;;1.27;;
8694;SDS011;65580;49.446;6.854;2024-02-23T12:06:18;7.30;;;1.20;;
8694;SDS011;65580;49.446;6.854;2024-02-23T12:18:52;30.40;;;13.50;;
8694;SDS011;65580;49.446;6.854;2024-02-23T12:22:56;4.43;;;1.25;;
8694;SDS011;65580;49.446;6.854;2024-02-23T12:26:59;10.45;;;5.20;;
8694;SDS011;65580;49.446;6.854;2024-02-23T12:31:12;6.68;;;2.47;;
8694;SDS011;65580;49.446;6.854;2024-02-23T12:35:15;4.28;;;1.60;;
8694;SDS011;65580;49.446;6.854;2024-02-23T12:39:19;17.13;;;5.47;;
8694;SDS011;65580;49.446;6.854;2024-02-23T12:43:22;6.53;;;1.92;;
8694;SDS011;65580;49.446;6.854;2024-02-23T12:51:35;6.28;;;1.42;;
8694;SDS011;65580;49.446;6.854;2024-02-23T12:55:38;11.43;;;1.67;;
8694;SDS011;65580;49.446;6.854;2024-02-23T12:59:40;5.43;;;1.60;;
8694;SDS011;65580;49.446;6.854;2024-02-23T13:03:45;4.65;;;1.40;;
8694;SDS011;65580;49.446;6.854;2024-02-23T13:07:50;4.95;;;1.10;;
8694;SDS011;65580;49.446;6.854;2024-02-23T13:11:53;3.30;;;1.02;;
8694;SDS011;65580;49.446;6.854;2024-02-23T13:15:57;5.38;;;1.13;;
8694;SDS011;65580;49.446;6.854;2024-02-23T13:20:01;4.47;;;0.80;;
8694;SDS011;65580;49.446;6.854;2024-02-23T13:28:31;3.67;;;0.80;;
8694;SDS011;65580;49.446;6.854;2024-02-23T13:41:01;4.32;;;0.93;;
8694;SDS011;65580;49.446;6.854;2024-02-23T13:45:04;9.02;;;1.33;;
8694;SDS011;65580;49.446;6.854;2024-02-23T13:49:18;9.43;;;1.67;;
8694;SDS011;65580;49.446;6.854;2024-02-23T13:53:22;7.57;;;1.38;;
8694;SDS011;65580;49.446;6.854;2024-02-23T13:57:26;4.95;;;1.00;;
8694;SDS011;65580;49.446;6.854;2024-02-23T14:01:29;5.75;;;1.13;;
8694;SDS011;65580;49.446;6.854;2024-02-23T14:05:32;7.78;;;1.25;;
8694;SDS011;65580;49.446;6.854;2024-02-23T14:13:59;25.88;;;6.97;;
8694;SDS011;65580;49.446;6.854;2024-02-23T14:18:03;8.20;;;2.20;;
8694;SDS011;65580;49.446;6.854;2024-02-23T14:22:06;6.07;;;1.48;;
8694;SDS011;65580;49.446;6.854;2024-02-23T14:26:11;5.88;;;1.58;;
8694;SDS011;65580;49.446;6.854;2024-02-23T14:30:15;4.85;;;1.60;;
8694;SDS011;65580;49.446;6.854;2024-02-23T14:34:18;7.32;;;2.65;;
8694;SDS011;65580;49.446;6.854;2024-02-23T14:38:25;10.27;;;3.10;;
8694;SDS011;65580;49.446;6.854;2024-02-23T14:42:29;3.25;;;1.30;;
8694;SDS011;65580;49.446;6.854;2024-02-23T14:46:32;2.92;;;0.70;;
8694;SDS011;65580;49.446;6.854;2024-02-23T14:50:35;7.93;;;2.40;;
8694;SDS011;65580;49.446;6.854;2024-02-23T14:54:38;1.40;;;0.80;;
8694;SDS011;65580;49.446;6.854;2024-02-23T14:58:42;6.05;;;0.50;;
8694;SDS011;65580;49.446;6.854;2024-02-23T15:02:45;0.73;;;0.45;;
8694;SDS011;65580;49.446;6.854;2024-02-23T15:06:49;0.88;;;0.68;;
8694;SDS011;65580;49.446;6.854;2024-02-23T15:10:51;4.47;;;1.60;;
8694;SDS011;65580;49.446;6.854;2024-02-23T15:14:56;2.83;;;0.80;;
8694;SDS011;65580;49.446;6.854;2024-02-23T15:18:59;2.97;;;0.50;;
8694;SDS011;65580;49.446;6.854;2024-02-23T15:23:01;6.65;;;1.17;;
8694;SDS011;65580;49.446;6.854;2024-02-23T15:27:04;1.88;;;1.00;;
8694;SDS011;65580;49.446;6.854;2024-02-23T15:31:09;2.05;;;0.50;;
8694;SDS011;65580;49.446;6.854;2024-02-23T15:35:12;1.10;;;0.55;;
8694;SDS011;65580;49.446;6.854;2024-02-23T15:39:15;1.23;;;0.77;;
8694;SDS011;65580;49.446;6.854;2024-02-23T15:43:23;2.30;;;0.80;;
8694;SDS011;65580;49.446;6.854;2024-02-23T15:47:27;1.85;;;0.47;;
8694;SDS011;65580;49.446;6.854;2024-02-23T15:51:30;2.17;;;0.50;;
8694;SDS011;65580;49.446;6.854;2024-02-23T15:55:52;4.85;;;1.25;;
8694;SDS011;65580;49.446;6.854;2024-02-23T16:04:13;4.07;;;1.05;;
8694;SDS011;65580;49.446;6.854;2024-02-23T16:08:16;2.83;;;0.75;;
8694;SDS011;65580;49.446;6.854;2024-02-23T16:12:37;1.63;;;0.90;;
8694;SDS011;65580;49.446;6.854;2024-02-23T16:16:58;4.15;;;1.00;;
8694;SDS011;65580;49.446;6.854;2024-02-23T16:21:06;3.20;;;1.00;;
8694;SDS011;65580;49.446;6.854;2024-02-23T16:25:11;3.92;;;1.10;;
8694;SDS011;65580;49.446;6.854;2024-02-23T16:33:37;5.35;;;1.63;;
8694;SDS011;65580;49.446;6.854;2024-02-23T16:37:42;3.83;;;1.50;;
8694;SDS011;65580;49.446;6.854;2024-02-23T16:41:46;6.20;;;1.30;;
8694;SDS011;65580;49.446;6.854;2024-02-23T16:45:48;4.47;;;1.40;;
8694;SDS011;65580;49.446;6.854;2024-02-23T16:49:51;2.50;;;1.13;;
8694;SDS011;65580;49.446;6.854;2024-02-23T16:53:55;1.38;;;0.95;;
8694;SDS011;65580;49.446;6.854;2024-02-23T16:57:59;5.35;;;0.98;;
8694;SDS011;65580;49.446;6.854;2024-02-23T17:06:25;8.80;;;3.10;;
8694;SDS011;65580;49.446;6.854;2024-02-23T17:10:30;6.55;;;3.00;;
8694;SDS011;65580;49.446;6.854;2024-02-23T17:14:47;4.82;;;1.65;;
8694;SDS011;65580;49.446;6.854;2024-02-23T17:19:08;3.90;;;1.58;;
8694;SDS011;65580;49.446;6.854;2024-02-23T17:23:11;5.05;;;1.58;;
8694;SDS011;65580;49.446;6.854;2024-02-23T17:27:15;5.13;;;1.50;;
8694;SDS011;65580;49.446;6.854;2024-02-23T17:31:18;5.32;;;1.58;;
8694;SDS011;65580;49.446;6.854;2024-02-23T17:35:21;8.68;;;2.50;;
8694;SDS011;65580;49.446;6.854;2024-02-23T17:39:24;3.50;;;1.45;;
8694;SDS011;65580;49.446;6.854;2024-02-23T17:43:45;6.03;;;1.90;;
8694;SDS011;65580;49.446;6.854;2024-02-23T17:47:47;7.20;;;2.00;;
8694;SDS011;65580;49.446;6.854;2024-02-23T17:51:51;5.63;;;1.70;;
8694;SDS011;65580;49.446;6.854;2024-02-23T17:55:54;4.03;;;1.58;;
8694;SDS011;65580;49.446;6.854;2024-02-23T18:00:00;4.90;;;2.00;;
8694;SDS011;65580;49.446;6.854;2024-02-23T18:04:04;5.43;;;1.63;;
8694;SDS011;65580;49.446;6.854;2024-02-23T18:08:12;4.45;;;2.03;;
8694;SDS011;65580;49.446;6.854;2024-02-23T18:16:49;8.40;;;2.90;;
8694;SDS011;65580;49.446;6.854;2024-02-23T18:25:28;4.95;;;2.00;;
8694;SDS011;65580;49.446;6.854;2024-02-23T18:29:30;5.53;;;2.33;;
8694;SDS011;65580;49.446;6.854;2024-02-23T18:33:37;6.18;;;2.42;;
8694;SDS011;65580;49.446;6.854;2024-02-23T18:37:40;6.75;;;2.50;;
8694;SDS011;65580;49.446;6.854;2024-02-23T18:41:51;4.63;;;2.42;;
8694;SDS011;65580;49.446;6.854;2024-02-23T18:45:54;6.28;;;2.38;;
8694;SDS011;65580;49.446;6.854;2024-02-23T18:54:52;5.95;;;1.80;;
8694;SDS011;65580;49.446;6.854;2024-02-23T18:59:03;7.03;;;2.30;;
8694;SDS011;65580;49.446;6.854;2024-02-23T19:03:06;7.90;;;2.60;;
8694;SDS011;65580;49.446;6.854;2024-02-23T19:07:09;10.55;;;2.60;;
8694;SDS011;65580;49.446;6.854;2024-02-23T19:11:14;10.77;;;3.33;;
8694;SDS011;65580;49.446;6.854;2024-02-23T19:15:17;6.95;;;2.55;;
8694;SDS011;65580;49.446;6.854;2024-02-23T19:19:20;12.90;;;3.03;;
8694;SDS011;65580;49.446;6.854;2024-02-23T19:23:23;5.32;;;2.15;;
8694;SDS011;65580;49.446;6.854;2024-02-23T19:27:28;6.88;;;2.53;;
8694;SDS011;65580;49.446;6.854;2024-02-23T19:31:32;6.32;;;2.15;;
8694;SDS011;65580;49.446;6.854;2024-02-23T19:35:35;6.65;;;2.05;;
8694;SDS011;65580;49.446;6.854;2024-02-23T19:39:38;4.22;;;1.90;;
8694;SDS011;65580;49.446;6.854;2024-02-23T19:43:43;5.18;;;2.25;;
8694;SDS011;65580;49.446;6.854;2024-02-23T19:51:49;5.72;;;2.17;;
8694;SDS011;65580;49.446;6.854;2024-02-23T19:55:55;11.13;;;4.13;;
8694;SDS011;65580;49.446;6.854;2024-02-23T20:00:09;9.27;;;2.33;;
8694;SDS011;65580;49.446;6.854;2024-02-23T20:04:13;7.28;;;1.70;;
8694;SDS011;65580;49.446;6.854;2024-02-23T20:08:23;1.75;;;1.08;;
8694;SDS011;65580;49.446;6.854;2024-02-23T20:16:30;2.35;;;1.15;;
8694;SDS011;65580;49.446;6.854;2024-02-23T20:20:40;2.35;;;1.10;;
8694;SDS011;65580;49.446;6.854;2024-02-23T20:24:43;4.22;;;1.40;;
8694;SDS011;65580;49.446;6.854;2024-02-23T20:28:46;3.33;;;1.60;;
8694;SDS011;65580;49.446;6.854;2024-02-23T20:32:51;4.32;;;2.20;;
8694;SDS011;65580;49.446;6.854;2024-02-23T20:36:55;5.30;;;2.50;;
8694;SDS011;65580;49.446;6.854;2024-02-23T20:40:58;6.95;;;3.20;;
8694;SDS011;65580;49.446;6.854;2024-02-23T20:45:01;4.35;;;2.63;;
8694;SDS011;65580;49.446;6.854;2024-02-23T20:49:08;7.00;;;3.30;;
8694;SDS011;65580;49.446;6.854;2024-02-23T20:53:11;8.45;;;3.65;;
8694;SDS011;65580;49.446;6.854;2024-02-23T20:57:14;5.53;;;2.70;;
8694;SDS011;65580;49.446;6.854;2024-02-23T21:01:17;6.55;;;3.30;;
8694;SDS011;65580;49.446;6.854;2024-02-23T21:05:22;7.63;;;3.10;;
8694;SDS011;65580;49.446;6.854;2024-02-23T21:09:34;8.95;;;3.45;;
8694;SDS011;65580;49.446;6.854;2024-02-23T21:13:37;6.50;;;3.00;;
8694;SDS011;65580;49.446;6.854;2024-02-23T21:17:40;5.57;;;2.78;;
8694;SDS011;65580;49.446;6.854;2024-02-23T21:26:08;4.63;;;2.83;;
8694;SDS011;65580;49.446;6.854;2024-02-23T21:30:11;9.23;;;2.92;;
8694;SDS011;65580;49.446;6.854;2024-02-23T21:34:14;9.05;;;3.92;;
8694;SDS011;65580;49.446;6.854;2024-02-23T21:38:20;6.40;;;3.13;;
8694;SDS011;65580;49.446;6.854;2024-02-23T21:42:31;11.35;;;3.95;;
8694;SDS011;65580;49.446;6.854;2024-02-23T21:46:51;11.35;;;4.32;;
8694;SDS011;65580;49.446;6.854;2024-02-23T21:50:55;5.90;;;3.35;;
8694;SDS011;65580;49.446;6.854;2024-02-23T21:55:00;9.75;;;4.00;;
8694;SDS011;65580;49.446;6.854;2024-02-23T21:59:03;6.82;;;2.95;;
8694;SDS011;65580;49.446;6.854;2024-02-23T22:03:05;6.85;;;2.80;;
8694;SDS011;65580;49.446;6.854;2024-02-23T22:07:09;5.25;;;2.63;;
8694;SDS011;65580;49.446;6.854;2024-02-23T22:11:16;7.22;;;2.75;;
8694;SDS011;65580;49.446;6.854;2024-02-23T22:15:19;6.07;;;2.75;;
8694;SDS011;65580;49.446;6.854;2024-02-23T22:19:22;4.18;;;2.72;;
8694;SDS011;65580;49.446;6.854;2024-02-23T22:23:25;6.82;;;3.25;;
8694;SDS011;65580;49.446;6.854;2024-02-23T22:27:30;6.68;;;3.60;;
8694;SDS011;65580;49.446;6.854;2024-02-23T22:31:33;11.75;;;5.57;;
8694;SDS011;65580;49.446;6.854;2024-02-23T22:35:40;10.38;;;5.60;;
8694;SDS011;65580;49.446;6.854;2024-02-23T22:39:43;20.67;;;8.80;;
8694;SDS011;65580;49.446;6.854;2024-02-23T22:43:47;12.57;;;6.57;;
8694;SDS011;65580;49.446;6.854;2024-02-23T22:47:50;15.38;;;6.55;;
8694;SDS011;65580;49.446;6.854;2024-02-23T22:51:53;9.52;;;5.40;;
8694;SDS011;65580;49.446;6.854;2024-02-23T22:55:56;11.50;;;5.80;;
8694;SDS011;65580;49.446;6.854;2024-02-23T23:00:01;10.82;;;5.38;;
8694;SDS011;65580;49.446;6.854;2024-02-23T23:04:17;9.45;;;4.68;;
8694;SDS011;65580;49.446;6.854;2024-02-23T23:08:20;14.18;;;6.60;;
8694;SDS011;65580;49.446;6.854;2024-02-23T23:12:23;8.25;;;4.38;;
8694;SDS011;65580;49.446;6.854;2024-02-23T23:16:28;11.40;;;5.70;;
8694;SDS011;65580;49.446;6.854;2024-02-23T23:20:40;7.38;;;3.90;;
8694;SDS011;65580;49.446;6.854;2024-02-23T23:24:43;7.35;;;3.53;;
8694;SDS011;65580;49.446;6.854;2024-02-23T23:28:46;8.13;;;3.80;;
8694;SDS011;65580;49.446;6.854;2024-02-23T23:32:51;8.05;;;3.75;;
8694;SDS011;65580;49.446;6.854;2024-02-23T23:36:55;9.45;;;5.03;;
8694;SDS011;65580;49.446;6.854;2024-02-23T23:40:58;6.55;;;4.03;;
8694;SDS011;65580;49.446;6.854;2024-02-23T23:45:01;8.48;;;3.35;;
8694;SDS011;65580;49.446;6.854;2024-02-23T23:49:05;7.00;;;3.65;;
8694;SDS011;65580;49.446;6.854;2024-02-23T23:53:08;6.60;;;3.22;;
8694;SDS011;65580;49.446;6.854;2024-02-23T23:57:11;10.57;;;4.00;;
